sensor_id;sensor_type;location;lat;lon;timestamp;pressure;altitude;pressure_sealevel;temperature;humidity
9439;BME280;5176;42.622;25.386;2023-08-06T00:00:03;96024.19;;;25.58;93.80
9439;BME280;5176;42.622;25.386;2023-08-06T00:02:30;96023.63;;;25.56;93.37
9439;BME280;5176;42.622;25.386;2023-08-06T00:04:57;96014.13;;;25.53;92.88
9439;BME280;5176;42.622;25.386;2023-08-06T00:07:28;96014.75;;;25.31;94.57
9439;BME280;5176;42.622;25.386;2023-08-06T00:09:55;96011.03;;;25.07;96.89
9439;BME280;5176;42.622;25.386;2023-08-06T00:12:24;96017.31;;;24.87;99.63
9439;BME280;5176;42.622;25.386;2023-08-06T00:14:51;96021.94;;;24.73;100.00
9439;BME280;5176;42.622;25.386;2023-08-06T00:17:19;96021.81;;;24.68;100.00
9439;BME280;5176;42.622;25.386;2023-08-06T00:19:46;96017.44;;;24.67;100.00
9439;BME280;5176;42.622;25.386;2023-08-06T00:22:13;96014.13;;;24.72;100.00
9439;BME280;5176;42.622;25.386;2023-08-06T00:24:40;96015.38;;;24.76;100.00
9439;BME280;5176;42.622;25.386;2023-08-06T00:27:08;96015.53;;;24.81;100.00
9439;BME280;5176;42.622;25.386;2023-08-06T00:29:36;96015.28;;;24.89;100.00
9439;BME280;5176;42.622;25.386;2023-08-06T00:32:04;96013.72;;;25.00;100.00
9439;BME280;5176;42.622;25.386;2023-08-06T00:34:31;96010.38;;;25.11;100.00
9439;BME280;5176;42.622;25.386;2023-08-06T00:36:58;96011.38;;;25.17;100.00
9439;BME280;5176;42.622;25.386;2023-08-06T00:39:25;96010.09;;;25.19;100.00
9439;BME280;5176;42.622;25.386;2023-08-06T00:41:52;96004.09;;;25.24;99.52
9439;BME280;5176;42.622;25.386;2023-08-06T00:44:20;96002.63;;;25.28;99.38
9439;BME280;5176;42.622;25.386;2023-08-06T00:46:49;95997.25;;;25.28;99.05
9439;BME280;5176;42.622;25.386;2023-08-06T00:49:17;95991.78;;;25.16;100.00
9439;BME280;5176;42.622;25.386;2023-08-06T00:51:44;95992.56;;;24.92;100.00
9439;BME280;5176;42.622;25.386;2023-08-06T00:54:12;95992.47;;;24.73;100.00
9439;BME280;5176;42.622;25.386;2023-08-06T00:56:41;95993.78;;;24.64;100.00
9439;BME280;5176;42.622;25.386;2023-08-06T00:59:09;95993.75;;;24.71;100.00
9439;BME280;5176;42.622;25.386;2023-08-06T01:01:37;95989.97;;;24.79;100.00
9439;BME280;5176;42.622;25.386;2023-08-06T01:04:07;95983.75;;;24.85;100.00
9439;BME280;5176;42.622;25.386;2023-08-06T01:06:39;95990.28;;;24.95;100.00
9439;BME280;5176;42.622;25.386;2023-08-06T01:09:14;95983.41;;;24.99;100.00
9439;BME280;5176;42.622;25.386;2023-08-06T01:11:56;95986.84;;;25.13;100.00
9439;BME280;5176;42.622;25.386;2023-08-06T01:14:31;95982.25;;;25.20;100.00
9439;BME280;5176;42.622;25.386;2023-08-06T01:17:01;95976.16;;;25.32;100.00
9439;BME280;5176;42.622;25.386;2023-08-06T01:19:31;95975.69;;;25.41;100.00
9439;BME280;5176;42.622;25.386;2023-08-06T01:22:00;95971.94;;;25.42;100.00
9439;BME280;5176;42.622;25.386;2023-08-06T01:24:27;95965.28;;;25.26;100.00
9439;BME280;5176;42.622;25.386;2023-08-06T01:27:00;95964.69;;;25.24;100.00
9439;BME280;5176;42.622;25.386;2023-08-06T01:29:34;95960.97;;;25.25;100.00
9439;BME280;5176;42.622;25.386;2023-08-06T01:32:03;95944.44;;;25.29;100.00
9439;BME280;5176;42.622;25.386;2023-08-06T01:34:33;95944.38;;;25.35;100.00
9439;BME280;5176;42.622;25.386;2023-08-06T01:37:03;95937.56;;;25.33;100.00
9439;BME280;5176;42.622;25.386;2023-08-06T01:39:33;95927.31;;;25.30;100.00
9439;BME280;5176;42.622;25.386;2023-08-06T01:42:00;95925.44;;;25.30;100.00
9439;BME280;5176;42.622;25.386;2023-08-06T01:44:27;95926.03;;;25.32;100.00
9439;BME280;5176;42.622;25.386;2023-08-06T01:46:55;95920.91;;;25.31;100.00
9439;BME280;5176;42.622;25.386;2023-08-06T01:49:22;95924.84;;;25.28;100.00
9439;BME280;5176;42.622;25.386;2023-08-06T01:51:49;95927.53;;;25.28;100.00
9439;BME280;5176;42.622;25.386;2023-08-06T01:54:18;95927.31;;;25.30;100.00
9439;BME280;5176;42.622;25.386;2023-08-06T01:56:45;95921.47;;;25.33;100.00
9439;BME280;5176;42.622;25.386;2023-08-06T01:59:12;95923.34;;;25.32;100.00
9439;BME280;5176;42.622;25.386;2023-08-06T02:01:40;95927.06;;;25.31;100.00
9439;BME280;5176;42.622;25.386;2023-08-06T02:04:07;95935.50;;;25.35;100.00
9439;BME280;5176;42.622;25.386;2023-08-06T02:06:34;95925.38;;;25.37;99.91
9439;BME280;5176;42.622;25.386;2023-08-06T02:09:01;95922.31;;;25.33;99.99
9439;BME280;5176;42.622;25.386;2023-08-06T02:11:30;95927.53;;;25.28;100.00
9439;BME280;5176;42.622;25.386;2023-08-06T02:13:57;95928.56;;;25.27;100.00
9439;BME280;5176;42.622;25.386;2023-08-06T02:16:25;95921.13;;;25.29;100.00
9439;BME280;5176;42.622;25.386;2023-08-06T02:18:52;95929.38;;;25.27;100.00
9439;BME280;5176;42.622;25.386;2023-08-06T02:21:19;95924.06;;;25.21;100.00
9439;BME280;5176;42.622;25.386;2023-08-06T02:23:46;95932.34;;;25.19;100.00
9439;BME280;5176;42.622;25.386;2023-08-06T02:26:13;95919.56;;;25.21;100.00
9439;BME280;5176;42.622;25.386;2023-08-06T02:28:42;95919.75;;;25.20;100.00
9439;BME280;5176;42.622;25.386;2023-08-06T02:31:09;95919.75;;;25.20;100.00
9439;BME280;5176;42.622;25.386;2023-08-06T02:33:36;95920.44;;;25.15;100.00
9439;BME280;5176;42.622;25.386;2023-08-06T02:36:04;95929.31;;;25.16;100.00
9439;BME280;5176;42.622;25.386;2023-08-06T02:38:31;95928.47;;;25.15;100.00
9439;BME280;5176;42.622;25.386;2023-08-06T02:40:59;95935.91;;;25.13;100.00
9439;BME280;5176;42.622;25.386;2023-08-06T02:43:28;95927.59;;;24.96;100.00
9439;BME280;5176;42.622;25.386;2023-08-06T02:45:58;95932.25;;;25.08;100.00
9439;BME280;5176;42.622;25.386;2023-08-06T02:48:25;95939.69;;;25.06;100.00
9439;BME280;5176;42.622;25.386;2023-08-06T02:50:53;95935.97;;;25.07;100.00
9439;BME280;5176;42.622;25.386;2023-08-06T02:53:20;95931.66;;;25.06;100.00
9439;BME280;5176;42.622;25.386;2023-08-06T02:55:47;95930.44;;;25.02;100.00
9439;BME280;5176;42.622;25.386;2023-08-06T02:58:15;95932.56;;;24.93;100.00
9439;BME280;5176;42.622;25.386;2023-08-06T03:00:43;95924.50;;;24.93;100.00
9439;BME280;5176;42.622;25.386;2023-08-06T03:03:12;95929.06;;;24.92;100.00
9439;BME280;5176;42.622;25.386;2023-08-06T03:05:39;95927.19;;;24.93;100.00
9439;BME280;5176;42.622;25.386;2023-08-06T03:08:06;95927.00;;;24.94;100.00
9439;BME280;5176;42.622;25.386;2023-08-06T03:10:34;95928.00;;;24.93;100.00
9439;BME280;5176;42.622;25.386;2023-08-06T03:13:02;95920.19;;;24.92;100.00
9439;BME280;5176;42.622;25.386;2023-08-06T03:15:29;95916.47;;;24.93;100.00
9439;BME280;5176;42.622;25.386;2023-08-06T03:17:56;95914.84;;;24.92;100.00
9439;BME280;5176;42.622;25.386;2023-08-06T03:20:25;95916.53;;;24.86;100.00
9439;BME280;5176;42.622;25.386;2023-08-06T03:22:52;95921.75;;;24.81;100.00
9439;BME280;5176;42.622;25.386;2023-08-06T03:25:20;95916.81;;;24.78;100.00
9439;BME280;5176;42.622;25.386;2023-08-06T03:27:47;95913.91;;;24.80;100.00
9439;BME280;5176;42.622;25.386;2023-08-06T03:30:14;95912.03;;;24.80;100.00
9439;BME280;5176;42.622;25.386;2023-08-06T03:32:42;95902.13;;;24.81;100.00
9439;BME280;5176;42.622;25.386;2023-08-06T03:35:09;95901.59;;;24.72;100.00
9439;BME280;5176;42.622;25.386;2023-08-06T03:37:37;95897.56;;;24.63;100.00
9439;BME280;5176;42.622;25.386;2023-08-06T03:40:06;95894.25;;;24.61;100.00
9439;BME280;5176;42.622;25.386;2023-08-06T03:42:33;95893.44;;;24.60;100.00
9439;BME280;5176;42.622;25.386;2023-08-06T03:45:01;95870.97;;;24.36;100.00
9439;BME280;5176;42.622;25.386;2023-08-06T03:47:28;95890.81;;;24.54;100.00
9439;BME280;5176;42.622;25.386;2023-08-06T03:49:55;95897.06;;;24.48;100.00
9439;BME280;5176;42.622;25.386;2023-08-06T03:52:23;95894.16;;;24.49;100.00
9439;BME280;5176;42.622;25.386;2023-08-06T03:54:51;95895.63;;;24.45;100.00
9439;BME280;5176;42.622;25.386;2023-08-06T03:57:18;95901.44;;;24.42;100.00
9439;BME280;5176;42.622;25.386;2023-08-06T03:59:46;95901.63;;;24.40;100.00
9439;BME280;5176;42.622;25.386;2023-08-06T04:02:13;95910.50;;;24.41;100.00
9439;BME280;5176;42.622;25.386;2023-08-06T04:04:40;95915.41;;;24.44;100.00
9439;BME280;5176;42.622;25.386;2023-08-06T04:07:07;95908.44;;;24.43;100.00
9439;BME280;5176;42.622;25.386;2023-08-06T04:09:53;95916.00;;;24.46;100.00
9439;BME280;5176;42.622;25.386;2023-08-06T04:12:21;95917.28;;;24.43;100.00
9439;BME280;5176;42.622;25.386;2023-08-06T04:14:48;95917.22;;;24.50;100.00
9439;BME280;5176;42.622;25.386;2023-08-06T04:17:15;95917.00;;;24.52;100.00
9439;BME280;5176;42.622;25.386;2023-08-06T04:19:42;95915.81;;;24.48;100.00
9439;BME280;5176;42.622;25.386;2023-08-06T04:22:10;95911.28;;;24.48;100.00
9439;BME280;5176;42.622;25.386;2023-08-06T04:24:37;95915.81;;;24.48;100.00
9439;BME280;5176;42.622;25.386;2023-08-06T04:27:06;95920.13;;;24.49;100.00
9439;BME280;5176;42.622;25.386;2023-08-06T04:29:33;95911.66;;;24.52;100.00
9439;BME280;5176;42.622;25.386;2023-08-06T04:32:00;95899.53;;;24.49;100.00
9439;BME280;5176;42.622;25.386;2023-08-06T04:34:28;95906.28;;;24.52;100.00
9439;BME280;5176;42.622;25.386;2023-08-06T04:36:55;95895.00;;;24.50;100.00
9439;BME280;5176;42.622;25.386;2023-08-06T04:39:22;95896.81;;;24.56;100.00
9439;BME280;5176;42.622;25.386;2023-08-06T04:41:50;95893.84;;;24.64;100.00
9439;BME280;5176;42.622;25.386;2023-08-06T04:44:18;95891.94;;;24.71;100.00
9439;BME280;5176;42.622;25.386;2023-08-06T04:46:46;95873.94;;;24.78;100.00
9439;BME280;5176;42.622;25.386;2023-08-06T04:49:13;95867.09;;;24.82;100.00
9439;BME280;5176;42.622;25.386;2023-08-06T04:51:40;95870.97;;;24.86;100.00
9439;BME280;5176;42.622;25.386;2023-08-06T04:54:07;95870.53;;;24.89;100.00
9439;BME280;5176;42.622;25.386;2023-08-06T04:56:35;95877.75;;;24.89;100.00
9439;BME280;5176;42.622;25.386;2023-08-06T04:59:02;95880.16;;;24.97;100.00
9439;BME280;5176;42.622;25.386;2023-08-06T05:01:31;95873.75;;;24.98;100.00
9439;BME280;5176;42.622;25.386;2023-08-06T05:03:58;95872.47;;;25.00;100.00
9439;BME280;5176;42.622;25.386;2023-08-06T05:06:25;95878.84;;;25.06;100.00
9439;BME280;5176;42.622;25.386;2023-08-06T05:08:52;95877.53;;;25.15;100.00
9439;BME280;5176;42.622;25.386;2023-08-06T05:11:20;95880.97;;;25.22;100.00
9439;BME280;5176;42.622;25.386;2023-08-06T05:13:47;95883.41;;;25.24;100.00
9439;BME280;5176;42.622;25.386;2023-08-06T05:16:14;95878.88;;;25.24;100.00
9439;BME280;5176;42.622;25.386;2023-08-06T05:18:43;95880.91;;;25.29;100.00
9439;BME280;5176;42.622;25.386;2023-08-06T05:21:10;95896.38;;;25.27;100.00
9439;BME280;5176;42.622;25.386;2023-08-06T05:23:38;95892.88;;;25.26;100.00
9439;BME280;5176;42.622;25.386;2023-08-06T05:26:05;95886.47;;;25.27;100.00
9439;BME280;5176;42.622;25.386;2023-08-06T05:28:33;95884.69;;;25.21;100.00
9439;BME280;5176;42.622;25.386;2023-08-06T05:31:03;95879.53;;;25.20;100.00
9439;BME280;5176;42.622;25.386;2023-08-06T05:33:31;95887.97;;;25.23;100.00
9439;BME280;5176;42.622;25.386;2023-08-06T05:35:59;95899.06;;;25.27;100.00
9439;BME280;5176;42.622;25.386;2023-08-06T05:38:26;95893.84;;;25.32;100.00
9439;BME280;5176;42.622;25.386;2023-08-06T05:40:54;95888.94;;;25.29;100.00
9439;BME280;5176;42.622;25.386;2023-08-06T05:43:22;95871.41;;;25.26;100.00
9439;BME280;5176;42.622;25.386;2023-08-06T05:45:50;95878.06;;;25.24;100.00
9439;BME280;5176;42.622;25.386;2023-08-06T05:48:17;95871.06;;;25.23;100.00
9439;BME280;5176;42.622;25.386;2023-08-06T05:50:44;95873.28;;;25.26;100.00
9439;BME280;5176;42.622;25.386;2023-08-06T05:53:13;95878.56;;;25.33;100.00
9439;BME280;5176;42.622;25.386;2023-08-06T05:55:40;95869.63;;;25.39;100.00
9439;BME280;5176;42.622;25.386;2023-08-06T05:58:07;95857.13;;;25.51;100.00
9439;BME280;5176;42.622;25.386;2023-08-06T06:00:35;95856.00;;;25.59;100.00
9439;BME280;5176;42.622;25.386;2023-08-06T06:03:02;95863.88;;;25.72;100.00
9439;BME280;5176;42.622;25.386;2023-08-06T06:05:29;95867.69;;;25.83;100.00
9439;BME280;5176;42.622;25.386;2023-08-06T06:07:57;95862.59;;;25.93;100.00
9439;BME280;5176;42.622;25.386;2023-08-06T06:10:26;95834.59;;;25.89;99.43
9439;BME280;5176;42.622;25.386;2023-08-06T06:12:53;95830.16;;;25.94;99.63
9439;BME280;5176;42.622;25.386;2023-08-06T06:15:21;95835.06;;;25.97;99.47
9439;BME280;5176;42.622;25.386;2023-08-06T06:17:48;95836.72;;;25.98;100.00
9439;BME280;5176;42.622;25.386;2023-08-06T06:20:15;95835.56;;;26.06;100.00
9439;BME280;5176;42.622;25.386;2023-08-06T06:22:42;95833.25;;;26.10;97.25
9439;BME280;5176;42.622;25.386;2023-08-06T06:25:10;95838.00;;;26.07;97.74
9439;BME280;5176;42.622;25.386;2023-08-06T06:27:38;95839.44;;;26.10;98.12
9439;BME280;5176;42.622;25.386;2023-08-06T06:30:07;95820.16;;;26.01;97.12
9439;BME280;5176;42.622;25.386;2023-08-06T06:32:34;95848.78;;;26.19;95.48
9439;BME280;5176;42.622;25.386;2023-08-06T06:35:02;95853.34;;;26.19;94.81
9439;BME280;5176;42.622;25.386;2023-08-06T06:37:29;95863.16;;;26.25;94.03
9439;BME280;5176;42.622;25.386;2023-08-06T06:39:57;95863.41;;;26.23;93.43
9439;BME280;5176;42.622;25.386;2023-08-06T06:42:24;95879.97;;;26.20;90.32
9439;BME280;5176;42.622;25.386;2023-08-06T06:44:53;95881.59;;;26.21;91.06
9439;BME280;5176;42.622;25.386;2023-08-06T06:47:20;95871.31;;;26.18;90.87
9439;BME280;5176;42.622;25.386;2023-08-06T06:49:47;95854.03;;;26.14;91.32
9439;BME280;5176;42.622;25.386;2023-08-06T06:52:15;95876.31;;;26.15;90.84
9439;BME280;5176;42.622;25.386;2023-08-06T06:54:42;95878.66;;;26.11;92.08
9439;BME280;5176;42.622;25.386;2023-08-06T06:57:09;95876.66;;;26.06;93.21
9439;BME280;5176;42.622;25.386;2023-08-06T06:59:36;95875.59;;;26.07;92.33
9439;BME280;5176;42.622;25.386;2023-08-06T07:02:05;95886.47;;;26.13;94.14
9439;BME280;5176;42.622;25.386;2023-08-06T07:04:32;95897.00;;;26.14;100.00
9439;BME280;5176;42.622;25.386;2023-08-06T07:07:00;95916.72;;;26.08;100.00
9439;BME280;5176;42.622;25.386;2023-08-06T07:09:27;95907.78;;;25.96;100.00
9439;BME280;5176;42.622;25.386;2023-08-06T07:11:54;95900.78;;;25.95;100.00
9439;BME280;5176;42.622;25.386;2023-08-06T07:14:24;95912.94;;;25.97;100.00
9439;BME280;5176;42.622;25.386;2023-08-06T07:16:52;95910.09;;;25.92;100.00
9439;BME280;5176;42.622;25.386;2023-08-06T07:19:20;95918.97;;;25.93;100.00
9439;BME280;5176;42.622;25.386;2023-08-06T07:21:48;95937.41;;;25.89;100.00
9439;BME280;5176;42.622;25.386;2023-08-06T07:24:16;95933.28;;;25.87;100.00
9439;BME280;5176;42.622;25.386;2023-08-06T07:26:43;95950.91;;;25.83;100.00
9439;BME280;5176;42.622;25.386;2023-08-06T07:29:11;95949.16;;;25.70;100.00
9439;BME280;5176;42.622;25.386;2023-08-06T07:31:38;95927.53;;;25.46;100.00
9439;BME280;5176;42.622;25.386;2023-08-06T07:34:05;95873.13;;;25.21;100.00
9439;BME280;5176;42.622;25.386;2023-08-06T07:36:34;95826.06;;;25.07;100.00
9439;BME280;5176;42.622;25.386;2023-08-06T07:39:02;95909.88;;;24.95;100.00
9439;BME280;5176;42.622;25.386;2023-08-06T07:41:31;95951.16;;;24.88;100.00
9439;BME280;5176;42.622;25.386;2023-08-06T07:43:59;95962.03;;;24.93;100.00
9439;BME280;5176;42.622;25.386;2023-08-06T07:46:26;95941.16;;;25.02;100.00
9439;BME280;5176;42.622;25.386;2023-08-06T07:48:53;95915.56;;;25.06;100.00
9439;BME280;5176;42.622;25.386;2023-08-06T07:51:21;95878.28;;;24.97;100.00
9439;BME280;5176;42.622;25.386;2023-08-06T07:53:50;95850.84;;;24.77;100.00
9439;BME280;5176;42.622;25.386;2023-08-06T07:56:17;95818.19;;;24.68;100.00
9439;BME280;5176;42.622;25.386;2023-08-06T07:58:45;95832.13;;;24.52;100.00
9439;BME280;5176;42.622;25.386;2023-08-06T08:01:12;95813.50;;;24.32;100.00
9439;BME280;5176;42.622;25.386;2023-08-06T08:03:39;95764.53;;;24.25;100.00
9439;BME280;5176;42.622;25.386;2023-08-06T08:06:07;95722.88;;;24.11;100.00
9439;BME280;5176;42.622;25.386;2023-08-06T08:08:34;95766.97;;;24.33;100.00
9439;BME280;5176;42.622;25.386;2023-08-06T08:11:05;95811.19;;;24.42;100.00
9439;BME280;5176;42.622;25.386;2023-08-06T08:13:33;95835.63;;;24.53;100.00
9439;BME280;5176;42.622;25.386;2023-08-06T08:16:01;95828.13;;;24.61;100.00
9439;BME280;5176;42.622;25.386;2023-08-06T08:18:28;95814.81;;;24.73;100.00
9439;BME280;5176;42.622;25.386;2023-08-06T08:20:57;95811.66;;;24.83;100.00
9439;BME280;5176;42.622;25.386;2023-08-06T08:23:24;95834.44;;;24.92;100.00
9439;BME280;5176;42.622;25.386;2023-08-06T08:25:52;95836.22;;;24.98;100.00
9439;BME280;5176;42.622;25.386;2023-08-06T08:28:21;95836.63;;;25.02;100.00
9439;BME280;5176;42.622;25.386;2023-08-06T08:30:48;95840.44;;;25.12;100.00
9439;BME280;5176;42.622;25.386;2023-08-06T08:33:16;95845.88;;;25.24;100.00
9439;BME280;5176;42.622;25.386;2023-08-06T08:35:45;95824.66;;;25.22;100.00
9439;BME280;5176;42.622;25.386;2023-08-06T08:38:12;95842.59;;;25.40;100.00
9439;BME280;5176;42.622;25.386;2023-08-06T08:40:46;95840.28;;;25.44;100.00
9439;BME280;5176;42.622;25.386;2023-08-06T08:43:15;95835.88;;;25.49;100.00
9439;BME280;5176;42.622;25.386;2023-08-06T08:45:45;95830.69;;;25.54;100.00
9439;BME280;5176;42.622;25.386;2023-08-06T08:48:17;95815.97;;;25.57;100.00
9439;BME280;5176;42.622;25.386;2023-08-06T08:50:47;95819.72;;;25.56;100.00
9439;BME280;5176;42.622;25.386;2023-08-06T08:53:16;95815.50;;;25.60;100.00
9439;BME280;5176;42.622;25.386;2023-08-06T08:55:46;95816.47;;;25.66;100.00
9439;BME280;5176;42.622;25.386;2023-08-06T08:58:13;95816.84;;;25.69;100.00
9439;BME280;5176;42.622;25.386;2023-08-06T09:00:42;95808.19;;;25.86;100.00
9439;BME280;5176;42.622;25.386;2023-08-06T09:03:11;95805.06;;;25.89;100.00
9439;BME280;5176;42.622;25.386;2023-08-06T09:05:41;95802.00;;;25.85;100.00
9439;BME280;5176;42.622;25.386;2023-08-06T09:08:12;95818.56;;;25.82;100.00
9439;BME280;5176;42.622;25.386;2023-08-06T09:10:43;95834.34;;;25.72;100.00
9439;BME280;5176;42.622;25.386;2023-08-06T09:13:12;95845.19;;;25.65;100.00
9439;BME280;5176;42.622;25.386;2023-08-06T09:15:42;95851.50;;;25.71;100.00
9439;BME280;5176;42.622;25.386;2023-08-06T09:18:13;95852.13;;;25.73;100.00
9439;BME280;5176;42.622;25.386;2023-08-06T09:20:40;95850.69;;;25.89;100.00
9439;BME280;5176;42.622;25.386;2023-08-06T09:23:08;95845.81;;;25.97;100.00
9439;BME280;5176;42.622;25.386;2023-08-06T09:25:38;95846.63;;;25.98;100.00
9439;BME280;5176;42.622;25.386;2023-08-06T09:28:06;95829.94;;;25.96;100.00
9439;BME280;5176;42.622;25.386;2023-08-06T09:30:35;95831.09;;;26.00;100.00
9439;BME280;5176;42.622;25.386;2023-08-06T09:33:02;95833.69;;;26.06;100.00
9439;BME280;5176;42.622;25.386;2023-08-06T09:35:31;95823.09;;;26.12;100.00
9439;BME280;5176;42.622;25.386;2023-08-06T09:38:05;95823.81;;;26.19;100.00
9439;BME280;5176;42.622;25.386;2023-08-06T09:40:34;95826.38;;;26.25;100.00
9439;BME280;5176;42.622;25.386;2023-08-06T09:43:01;95832.94;;;26.29;100.00
9439;BME280;5176;42.622;25.386;2023-08-06T09:45:31;95817.19;;;26.33;100.00
9439;BME280;5176;42.622;25.386;2023-08-06T09:47:59;95781.00;;;26.35;100.00
9439;BME280;5176;42.622;25.386;2023-08-06T09:50:32;95785.56;;;26.47;100.00
9439;BME280;5176;42.622;25.386;2023-08-06T09:53:01;95797.28;;;26.76;100.00
9439;BME280;5176;42.622;25.386;2023-08-06T09:55:29;95816.56;;;26.84;100.00
9439;BME280;5176;42.622;25.386;2023-08-06T09:57:58;95812.69;;;26.80;100.00
9439;BME280;5176;42.622;25.386;2023-08-06T10:00:25;95816.31;;;26.86;100.00
9439;BME280;5176;42.622;25.386;2023-08-06T10:02:54;95813.63;;;26.86;100.00
9439;BME280;5176;42.622;25.386;2023-08-06T10:05:22;95818.19;;;26.85;100.00
9439;BME280;5176;42.622;25.386;2023-08-06T10:07:52;95858.63;;;26.91;100.00
9439;BME280;5176;42.622;25.386;2023-08-06T10:10:21;95895.81;;;26.82;98.29
9439;BME280;5176;42.622;25.386;2023-08-06T10:12:52;95888.22;;;26.37;78.43
9439;BME280;5176;42.622;25.386;2023-08-06T10:15:25;95905.69;;;25.98;84.04
9439;BME280;5176;42.622;25.386;2023-08-06T10:17:56;95907.13;;;25.45;89.18
9439;BME280;5176;42.622;25.386;2023-08-06T10:20:23;95909.53;;;24.85;96.24
9439;BME280;5176;42.622;25.386;2023-08-06T10:23:02;95902.66;;;24.08;98.03
9439;BME280;5176;42.622;25.386;2023-08-06T10:25:34;95888.56;;;23.16;100.00
9439;BME280;5176;42.622;25.386;2023-08-06T10:28:07;95915.53;;;23.01;100.00
9439;BME280;5176;42.622;25.386;2023-08-06T10:30:41;95940.97;;;22.51;100.00
9439;BME280;5176;42.622;25.386;2023-08-06T10:33:09;95878.00;;;21.89;100.00
9439;BME280;5176;42.622;25.386;2023-08-06T10:35:38;95872.31;;;21.44;100.00
9439;BME280;5176;42.622;25.386;2023-08-06T10:38:12;95888.72;;;21.13;100.00
9439;BME280;5176;42.622;25.386;2023-08-06T10:41:01;95875.09;;;20.94;100.00
9439;BME280;5176;42.622;25.386;2023-08-06T10:43:30;95877.75;;;20.94;100.00
9439;BME280;5176;42.622;25.386;2023-08-06T10:45:59;95881.44;;;20.93;100.00
9439;BME280;5176;42.622;25.386;2023-08-06T10:48:31;95890.09;;;21.02;100.00
9439;BME280;5176;42.622;25.386;2023-08-06T10:51:00;95894.84;;;21.07;100.00
9439;BME280;5176;42.622;25.386;2023-08-06T10:53:30;95905.63;;;21.27;100.00
9439;BME280;5176;42.622;25.386;2023-08-06T10:55:57;95907.19;;;21.49;100.00
9439;BME280;5176;42.622;25.386;2023-08-06T10:58:26;95925.13;;;21.68;100.00
9439;BME280;5176;42.622;25.386;2023-08-06T11:00:58;95922.53;;;21.88;100.00
9439;BME280;5176;42.622;25.386;2023-08-06T11:03:27;95913.94;;;21.99;100.00
9439;BME280;5176;42.622;25.386;2023-08-06T11:05:54;95917.09;;;22.10;100.00
9439;BME280;5176;42.622;25.386;2023-08-06T11:08:24;95902.72;;;22.17;100.00
9439;BME280;5176;42.622;25.386;2023-08-06T11:10:53;95899.69;;;22.27;100.00
9439;BME280;5176;42.622;25.386;2023-08-06T11:13:21;95904.59;;;22.30;100.00
9439;BME280;5176;42.622;25.386;2023-08-06T11:15:48;95908.31;;;22.42;100.00
9439;BME280;5176;42.622;25.386;2023-08-06T11:18:16;95911.22;;;22.54;100.00
9439;BME280;5176;42.622;25.386;2023-08-06T11:20:45;95916.94;;;22.77;100.00
9439;BME280;5176;42.622;25.386;2023-08-06T11:23:13;95915.09;;;23.04;100.00
9439;BME280;5176;42.622;25.386;2023-08-06T11:25:44;95914.84;;;23.32;100.00
9439;BME280;5176;42.622;25.386;2023-08-06T11:28:13;95934.31;;;23.66;100.00
9439;BME280;5176;42.622;25.386;2023-08-06T11:30:40;95923.91;;;23.96;100.00
9439;BME280;5176;42.622;25.386;2023-08-06T11:33:08;95936.78;;;24.12;100.00
9439;BME280;5176;42.622;25.386;2023-08-06T11:35:36;95940.03;;;24.28;100.00
9439;BME280;5176;42.622;25.386;2023-08-06T11:38:04;95933.53;;;24.49;100.00
9439;BME280;5176;42.622;25.386;2023-08-06T11:40:32;95939.00;;;24.60;97.01
9439;BME280;5176;42.622;25.386;2023-08-06T11:43:00;95943.00;;;24.76;97.02
9439;BME280;5176;42.622;25.386;2023-08-06T11:45:28;95955.13;;;24.79;83.77
9439;BME280;5176;42.622;25.386;2023-08-06T11:47:56;95948.09;;;24.84;87.17
9439;BME280;5176;42.622;25.386;2023-08-06T11:50:24;95954.34;;;25.03;93.77
9439;BME280;5176;42.622;25.386;2023-08-06T11:52:56;95962.47;;;25.21;87.10
9439;BME280;5176;42.622;25.386;2023-08-06T11:55:24;95958.59;;;25.36;89.29
9439;BME280;5176;42.622;25.386;2023-08-06T11:57:52;95949.97;;;25.52;87.28
9439;BME280;5176;42.622;25.386;2023-08-06T12:00:19;95953.72;;;25.69;84.04
9439;BME280;5176;42.622;25.386;2023-08-06T12:02:49;95955.38;;;25.89;80.81
9439;BME280;5176;42.622;25.386;2023-08-06T12:05:19;95952.06;;;26.05;81.24
9439;BME280;5176;42.622;25.386;2023-08-06T12:07:50;95959.28;;;26.23;81.02
9439;BME280;5176;42.622;25.386;2023-08-06T12:10:18;95955.38;;;26.37;82.11
9439;BME280;5176;42.622;25.386;2023-08-06T12:12:46;95951.59;;;26.56;79.14
9439;BME280;5176;42.622;25.386;2023-08-06T12:15:14;95941.91;;;26.67;76.51
9439;BME280;5176;42.622;25.386;2023-08-06T12:17:41;95946.16;;;26.86;79.95
9439;BME280;5176;42.622;25.386;2023-08-06T12:20:11;95893.44;;;26.62;70.67
9439;BME280;5176;42.622;25.386;2023-08-06T12:22:38;95948.09;;;27.09;70.94
9439;BME280;5176;42.622;25.386;2023-08-06T12:25:07;95940.03;;;27.09;68.08
9439;BME280;5176;42.622;25.386;2023-08-06T12:27:37;95941.56;;;27.17;70.03
9439;BME280;5176;42.622;25.386;2023-08-06T12:30:05;95914.50;;;27.00;67.54
9439;BME280;5176;42.622;25.386;2023-08-06T12:32:33;95948.78;;;27.28;71.72
9439;BME280;5176;42.622;25.386;2023-08-06T12:35:01;95942.59;;;27.28;65.03
9439;BME280;5176;42.622;25.386;2023-08-06T12:37:30;95940.72;;;27.28;68.66
9439;BME280;5176;42.622;25.386;2023-08-06T12:39:57;95936.88;;;27.24;64.35
9439;BME280;5176;42.622;25.386;2023-08-06T12:42:25;95937.81;;;27.30;67.94
9439;BME280;5176;42.622;25.386;2023-08-06T12:44:52;95932.91;;;27.38;66.43
9439;BME280;5176;42.622;25.386;2023-08-06T12:47:19;95941.34;;;27.42;67.15
9439;BME280;5176;42.622;25.386;2023-08-06T12:49:47;95916.63;;;27.33;65.61
9439;BME280;5176;42.622;25.386;2023-08-06T12:52:15;95933.22;;;27.54;65.99
9439;BME280;5176;42.622;25.386;2023-08-06T12:54:47;95931.59;;;27.53;66.72
9439;BME280;5176;42.622;25.386;2023-08-06T12:57:14;95920.69;;;27.59;63.23
9439;BME280;5176;42.622;25.386;2023-08-06T12:59:43;95914.13;;;27.67;64.09
9439;BME280;5176;42.622;25.386;2023-08-06T13:02:10;95906.53;;;27.64;61.07
9439;BME280;5176;42.622;25.386;2023-08-06T13:04:37;95907.34;;;27.64;63.22
9439;BME280;5176;42.622;25.386;2023-08-06T13:07:05;95911.44;;;27.67;61.96